createdAt,value
2022-11-05T00:01:46.982Z,40.88
2022-11-05T00:04:37.216Z,40.22
2022-11-05T00:07:57.328Z,41.28
2022-11-05T00:10:31.467Z,42.67
2022-11-05T00:13:17.793Z,38.03
2022-11-05T00:16:08.009Z,35.20
2022-11-05T00:18:38.385Z,37.67
2022-11-05T00:21:28.364Z,46.60
2022-11-05T00:24:08.438Z,42.47
2022-11-05T00:26:38.964Z,43.03
2022-11-05T00:31:39.587Z,43.93
2022-11-05T00:34:10.008Z,42.65
2022-11-05T00:36:40.549Z,42.17
2022-11-05T00:41:40.717Z,41.97
2022-11-05T00:44:29.707Z,40.13
2022-11-05T00:47:19.462Z,51.03
2022-11-05T00:49:50.021Z,47.90
2022-11-05T00:55:00.697Z,47.28
2022-11-05T01:00:03.749Z,48.28
2022-11-05T01:02:34.175Z,53.45
2022-11-05T01:05:04.752Z,49.33
2022-11-05T01:07:35.118Z,48.80
2022-11-05T01:10:05.590Z,50.15
2022-11-05T01:12:36.060Z,48.88
2022-11-05T01:15:06.936Z,50.20
2022-11-05T01:17:37.434Z,51.78
2022-11-05T01:20:08.232Z,52.47
2022-11-05T01:22:38.625Z,51.47
2022-11-05T01:25:09.743Z,67.00
2022-11-05T01:27:41.166Z,83.85
2022-11-05T01:30:12.695Z,76.82
2022-11-05T01:32:43.211Z,74.75
2022-11-05T01:35:19.455Z,65.13
2022-11-05T01:37:50.525Z,61.72
2022-11-05T01:40:24.495Z,56.55
2022-11-05T01:42:55.871Z,51.85
2022-11-05T01:45:29.826Z,49.40
2022-11-05T01:48:29.844Z,51.13
2022-11-05T01:51:20.542Z,49.28
2022-11-05T01:53:57.169Z,51.85
2022-11-05T01:56:33.645Z,48.53
2022-11-05T01:59:27.864Z,51.55
2022-11-05T02:01:58.558Z,52.72
2022-11-05T02:04:52.809Z,54.70
2022-11-05T02:07:25.450Z,54.60
2022-11-05T02:10:08.040Z,60.50
2022-11-05T02:12:40.753Z,57.00
2022-11-05T02:15:14.603Z,58.45
2022-11-05T02:18:16.913Z,55.67
2022-11-05T02:21:05.823Z,55.72
2022-11-05T02:24:05.795Z,60.45
2022-11-05T02:27:04.305Z,61.17
2022-11-05T02:30:12.931Z,64.05
2022-11-05T02:33:05.800Z,65.60
2022-11-05T02:36:06.862Z,67.60
2022-11-05T02:39:06.736Z,64.60
2022-11-05T02:42:01.931Z,68.57
2022-11-05T02:44:53.788Z,77.47
2022-11-05T02:47:47.469Z,84.40
2022-11-05T02:50:34.458Z,84.30
2022-11-05T02:53:13.060Z,85.20
2022-11-05T02:56:01.506Z,88.82
2022-11-05T02:58:32.347Z,83.60
2022-11-05T03:01:03.773Z,80.72
2022-11-05T03:03:53.036Z,80.82
2022-11-05T03:06:48.496Z,85.60
2022-11-05T03:09:48.526Z,86.78
2022-11-05T03:12:38.807Z,86.07
2022-11-05T03:15:27.175Z,85.85
2022-11-05T03:18:34.255Z,88.88
2022-11-05T03:21:11.339Z,86.70
2022-11-05T03:24:04.993Z,84.15
2022-11-05T03:26:54.381Z,89.68
2022-11-05T03:29:45.487Z,87.17
2022-11-05T03:32:18.183Z,90.10
2022-11-05T03:34:53.956Z,77.30
2022-11-05T03:37:26.394Z,84.78
2022-11-05T03:40:01.663Z,81.65
2022-11-05T03:42:34.964Z,74.07
2022-11-05T03:45:12.736Z,79.53
2022-11-05T03:47:45.254Z,73.38
2022-11-05T03:50:41.520Z,72.22
2022-11-05T03:53:24.640Z,61.60
2022-11-05T03:56:03.683Z,62.95
2022-11-05T03:58:34.333Z,65.75
2022-11-05T04:01:05.232Z,64.20
2022-11-05T04:03:37.994Z,64.50
2022-11-05T04:06:21.359Z,63.60
2022-11-05T04:09:01.440Z,62.83
2022-11-05T04:11:41.646Z,63.17
2022-11-05T04:14:11.375Z,68.72
2022-11-05T04:16:51.967Z,69.25
2022-11-05T04:19:41.228Z,76.13
2022-11-05T04:22:22.276Z,74.13
2022-11-05T04:24:52.546Z,77.13
2022-11-05T04:27:22.418Z,74.82
2022-11-05T04:30:02.735Z,72.63
2022-11-05T04:32:32.602Z,68.03
2022-11-05T04:35:03.313Z,65.13
2022-11-05T04:37:33.355Z,66.57
2022-11-05T04:40:03.194Z,64.68
2022-11-05T04:42:33.089Z,68.88
2022-11-05T04:45:02.991Z,72.47
2022-11-05T04:47:32.819Z,72.25
2022-11-05T04:50:03.693Z,70.85
2022-11-05T04:52:35.002Z,68.90
2022-11-05T04:55:05.103Z,73.75
2022-11-05T05:00:05.282Z,73.90
2022-11-05T05:02:35.814Z,68.10
2022-11-05T05:05:06.669Z,72.53
2022-11-05T05:07:37.470Z,74.55
2022-11-05T05:10:08.991Z,71.05
2022-11-05T05:12:39.002Z,74.30
2022-11-05T05:15:09.576Z,74.13
2022-11-05T05:17:39.458Z,70.88
2022-11-05T05:20:25.755Z,70.80
2022-11-05T05:22:57.019Z,67.80
2022-11-05T05:25:27.093Z,71.90
2022-11-05T05:30:28.687Z,68.35
2022-11-05T05:32:58.635Z,68.68
2022-11-05T05:35:28.901Z,63.75
2022-11-05T05:37:58.987Z,63.85
2022-11-05T05:42:58.702Z,63.90
2022-11-05T05:45:28.742Z,64.85
2022-11-05T05:47:58.957Z,62.00
2022-11-05T05:50:28.859Z,65.90
2022-11-05T05:52:59.107Z,60.42
2022-11-05T05:55:29.224Z,60.75
2022-11-05T05:57:59.800Z,53.60
2022-11-05T06:00:29.771Z,49.63
2022-11-05T06:02:59.689Z,43.05
2022-11-05T06:08:00.127Z,35.67
2022-11-05T06:10:30.050Z,43.15
2022-11-05T06:13:02.484Z,45.42
2022-11-05T06:15:35.823Z,33.80
2022-11-05T06:18:06.240Z,36.17
2022-11-05T06:23:05.334Z,33.50
2022-11-05T06:25:38.523Z,35.88
2022-11-05T06:28:11.915Z,27.90
2022-11-05T06:30:41.825Z,30.05
2022-11-05T06:33:11.951Z,26.65
2022-11-05T06:35:42.058Z,26.17
2022-11-05T06:38:11.910Z,26.25
2022-11-05T06:40:41.747Z,24.02
2022-11-05T06:43:12.131Z,24.60
2022-11-05T06:45:42.707Z,30.77
2022-11-05T06:48:12.485Z,31.83
2022-11-05T06:50:45.513Z,33.67
2022-11-05T06:53:15.941Z,36.53
2022-11-05T06:55:46.826Z,30.77
2022-11-05T06:58:17.281Z,30.00
2022-11-05T07:00:47.871Z,26.90
2022-11-05T07:03:17.919Z,25.35
2022-11-05T07:08:20.172Z,21.02
2022-11-05T07:10:50.471Z,22.15
2022-11-05T07:13:20.401Z,21.90
2022-11-05T07:18:19.643Z,21.53
2022-11-05T07:23:19.191Z,21.60
2022-11-05T07:25:49.240Z,22.23
2022-11-05T07:30:49.820Z,21.83
2022-11-05T07:33:19.828Z,22.48
2022-11-05T07:38:19.017Z,23.92
2022-11-05T07:40:48.890Z,22.08
2022-11-05T07:43:18.761Z,22.42
2022-11-05T07:45:49.396Z,24.30
2022-11-05T07:48:19.306Z,23.92
2022-11-05T07:53:18.552Z,22.43
2022-11-05T07:58:18.541Z,20.45
2022-11-05T08:00:49.707Z,21.10
2022-11-05T08:03:21.436Z,18.90
2022-11-05T08:05:52.148Z,19.27
2022-11-05T08:08:23.003Z,20.58
2022-11-05T08:10:53.475Z,19.27
2022-11-05T08:13:23.745Z,17.80
2022-11-05T08:15:54.605Z,21.52
2022-11-05T08:18:24.931Z,20.35
2022-11-05T08:20:56.126Z,17.45
2022-11-05T08:23:26.476Z,16.92
2022-11-05T08:25:57.648Z,17.30
2022-11-05T08:28:29.237Z,17.27
2022-11-05T08:31:02.247Z,19.80
2022-11-05T08:33:33.021Z,17.48
2022-11-05T08:36:07.231Z,19.48
2022-11-05T08:38:37.066Z,18.98
2022-11-05T08:41:07.700Z,18.15
2022-11-05T08:43:38.192Z,20.85
2022-11-05T08:46:08.039Z,20.75
2022-11-05T08:48:37.897Z,18.30
2022-11-05T08:51:07.866Z,23.65
2022-11-05T08:56:07.156Z,19.17
2022-11-05T09:01:07.389Z,18.83
2022-11-05T09:03:37.319Z,17.80
2022-11-05T09:06:07.475Z,16.60
2022-11-05T09:08:37.436Z,18.77
2022-11-05T09:13:37.207Z,16.90
2022-11-05T09:16:07.880Z,17.73
2022-11-05T09:18:37.730Z,17.00
2022-11-05T09:21:07.656Z,17.80
2022-11-05T09:26:06.834Z,15.85
2022-11-05T09:28:36.642Z,16.38
2022-11-05T09:31:12.125Z,15.43
2022-11-05T09:33:43.098Z,16.33
2022-11-05T09:36:13.071Z,18.08
2022-11-05T09:41:30.550Z,20.42
2022-11-05T09:44:08.173Z,18.35
2022-11-05T09:46:58.842Z,16.80
2022-11-05T09:49:37.003Z,16.83
2022-11-05T09:52:07.470Z,16.80
2022-11-05T09:54:37.364Z,16.88
2022-11-05T09:57:14.024Z,16.60
2022-11-05T09:59:49.343Z,16.95
2022-11-05T10:02:37.001Z,19.40
2022-11-05T10:05:13.482Z,19.33
2022-11-05T10:07:58.774Z,20.23
2022-11-05T10:10:41.269Z,19.60
2022-11-05T10:13:25.948Z,18.23
2022-11-05T10:16:19.286Z,17.58
2022-11-05T10:18:55.878Z,18.90
2022-11-05T10:21:51.368Z,19.58
2022-11-05T10:24:19.567Z,18.30
2022-11-05T10:26:52.651Z,17.42
2022-11-05T10:29:36.137Z,18.98
2022-11-05T10:32:08.954Z,18.83
2022-11-05T10:34:42.150Z,18.25
2022-11-05T10:37:13.025Z,19.35
2022-11-05T10:39:42.986Z,18.52
2022-11-05T10:42:35.089Z,20.65
2022-11-05T10:45:26.254Z,22.02
2022-11-05T10:48:26.590Z,19.13
2022-11-05T10:50:57.159Z,20.15
2022-11-05T10:53:34.704Z,19.15
2022-11-05T10:56:05.589Z,21.10
2022-11-05T10:58:37.317Z,20.05
2022-11-05T11:01:12.895Z,21.60
2022-11-05T11:03:50.461Z,23.05
2022-11-05T11:06:39.740Z,23.77
2022-11-05T11:09:21.495Z,21.37
2022-11-05T11:12:07.483Z,23.08
2022-11-05T11:14:37.377Z,24.30
2022-11-05T11:17:28.510Z,24.10
2022-11-05T11:20:25.125Z,23.95
2022-11-05T11:23:17.280Z,27.85
2022-11-05T11:26:02.419Z,28.27
2022-11-05T11:28:50.395Z,27.13
2022-11-05T11:31:27.351Z,27.40
2022-11-05T11:34:10.237Z,37.03
2022-11-05T11:36:49.087Z,27.73
2022-11-05T11:39:26.202Z,27.95
2022-11-05T11:42:01.758Z,31.58
2022-11-05T11:44:38.523Z,36.42
2022-11-05T11:47:15.735Z,33.67
2022-11-05T11:49:54.046Z,33.80
2022-11-05T11:52:34.449Z,35.13
2022-11-05T11:55:24.479Z,35.55
2022-11-05T11:58:06.702Z,38.90
2022-11-05T12:00:44.585Z,71.57
2022-11-05T12:03:51.598Z,102.60
2022-11-05T12:06:51.056Z,49.42
2022-11-05T12:09:34.102Z,46.47
2022-11-05T12:12:16.642Z,44.38
2022-11-05T12:15:17.604Z,47.10
2022-11-05T12:18:05.120Z,45.78
2022-11-05T12:20:56.941Z,40.22
2022-11-05T12:23:57.577Z,38.70
2022-11-05T12:26:48.014Z,37.00
2022-11-05T12:29:45.857Z,37.45
2022-11-05T12:32:33.089Z,35.45
2022-11-05T12:35:37.038Z,38.25
2022-11-05T12:38:37.976Z,44.58
2022-11-05T12:41:41.257Z,46.55
2022-11-05T12:44:43.088Z,44.15
2022-11-05T12:47:34.292Z,39.47
2022-11-05T12:50:33.502Z,40.65
2022-11-05T12:53:33.662Z,35.38
2022-11-05T12:56:12.336Z,34.97
2022-11-05T12:58:48.198Z,35.35
2022-11-05T13:01:23.469Z,34.03
2022-11-05T13:04:04.519Z,30.77
2022-11-05T13:06:42.973Z,32.83
2022-11-05T13:09:37.008Z,33.20
2022-11-05T13:12:15.816Z,38.60
2022-11-05T13:14:59.767Z,42.70
2022-11-05T13:17:38.831Z,48.28
2022-11-05T13:20:23.151Z,48.35
2022-11-05T13:23:08.922Z,47.40
2022-11-05T13:25:48.373Z,53.33
2022-11-05T13:28:48.741Z,49.20
2022-11-05T13:33:54.680Z,50.45
2022-11-05T13:36:55.534Z,50.05
2022-11-05T13:39:35.026Z,50.22
2022-11-05T13:42:36.514Z,51.47
2022-11-05T13:45:40.530Z,45.63
2022-11-05T13:48:47.245Z,51.40
2022-11-05T13:51:43.353Z,50.50
2022-11-05T13:54:43.505Z,51.17
2022-11-05T13:57:47.793Z,51.33
2022-11-05T14:00:25.822Z,49.38
2022-11-05T14:03:03.041Z,49.28
2022-11-05T14:05:44.045Z,44.65
2022-11-05T14:08:27.859Z,46.55
2022-11-05T14:11:10.571Z,46.63
2022-11-05T14:13:45.207Z,47.88
2022-11-05T14:16:23.935Z,51.80
2022-11-05T14:19:33.215Z,49.28
2022-11-05T14:22:23.801Z,47.42
2022-11-05T14:24:54.704Z,52.65
2022-11-05T14:27:46.223Z,50.85
2022-11-05T14:30:49.784Z,53.90
2022-11-05T14:33:34.965Z,54.83
2022-11-05T14:36:31.542Z,51.75
2022-11-05T14:39:23.489Z,53.97
2022-11-05T14:42:01.424Z,53.88
2022-11-05T14:44:34.171Z,47.47
2022-11-05T14:47:09.914Z,47.80
2022-11-05T14:49:56.525Z,46.75
2022-11-05T14:52:28.000Z,44.63
2022-11-05T14:55:00.777Z,46.67
2022-11-05T14:58:01.831Z,46.95
2022-11-05T15:00:46.377Z,47.33
2022-11-05T15:03:42.703Z,46.30
2022-11-05T15:06:34.322Z,43.72
2022-11-05T15:09:18.116Z,47.38
2022-11-05T15:12:04.637Z,50.03
2022-11-05T15:14:51.451Z,49.88
2022-11-05T15:17:31.792Z,48.42
2022-11-05T15:22:46.353Z,50.05
2022-11-05T15:25:47.862Z,44.65
2022-11-05T15:28:46.019Z,49.22
2022-11-05T15:31:35.976Z,47.75
2022-11-05T15:34:26.340Z,45.13
2022-11-05T15:39:42.689Z,44.90
2022-11-05T15:42:26.694Z,47.78
2022-11-05T15:45:00.221Z,49.70
2022-11-05T15:47:36.288Z,51.25
2022-11-05T15:50:16.525Z,51.45
2022-11-05T15:53:04.854Z,52.88
2022-11-05T15:55:55.670Z,50.15
2022-11-05T15:58:26.162Z,57.92
2022-11-05T16:00:56.967Z,55.92
2022-11-05T16:03:36.322Z,52.95
2022-11-05T16:06:11.314Z,52.58
2022-11-05T16:08:41.873Z,51.72
2022-11-05T16:11:22.912Z,50.47
2022-11-05T16:13:53.903Z,48.72
2022-11-05T16:16:37.057Z,50.97
2022-11-05T16:19:40.264Z,48.30
2022-11-05T16:22:11.402Z,44.65
2022-11-05T16:24:41.927Z,47.33
2022-11-05T16:27:20.035Z,47.30
2022-11-05T16:29:57.541Z,48.55
2022-11-05T16:32:33.039Z,45.88
2022-11-05T16:35:06.642Z,46.10
2022-11-05T16:37:51.629Z,47.63
2022-11-05T16:40:26.301Z,44.92
2022-11-05T16:42:57.788Z,46.83
2022-11-05T16:45:28.643Z,47.00
2022-11-05T16:47:59.109Z,49.92
2022-11-05T16:50:33.673Z,46.13
2022-11-05T16:53:04.284Z,51.78
2022-11-05T16:55:36.259Z,53.10
2022-11-05T16:58:06.849Z,50.05
2022-11-05T17:00:37.314Z,51.70
2022-11-05T17:03:07.907Z,51.15
2022-11-05T17:05:39.471Z,49.60
2022-11-05T17:08:11.432Z,49.22
2022-11-05T17:10:43.379Z,45.15
2022-11-05T17:13:19.115Z,47.10
2022-11-05T17:15:52.452Z,44.70
2022-11-05T17:18:23.663Z,43.05
2022-11-05T17:20:56.721Z,44.28
2022-11-05T17:23:29.567Z,41.17
2022-11-05T17:26:05.791Z,41.85
2022-11-05T17:28:37.455Z,43.08
2022-11-05T17:31:10.733Z,43.97
2022-11-05T17:33:41.765Z,41.58
2022-11-05T17:36:16.298Z,45.13
2022-11-05T17:38:47.066Z,41.17
2022-11-05T17:41:24.245Z,43.67
2022-11-05T17:44:00.820Z,41.85
2022-11-05T17:46:31.670Z,41.75
2022-11-05T17:49:02.305Z,43.55
2022-11-05T17:51:32.775Z,43.83
2022-11-05T17:54:03.318Z,42.33
2022-11-05T17:56:36.256Z,44.63
2022-11-05T17:59:08.623Z,41.45
2022-11-05T18:01:45.120Z,45.05
2022-11-05T18:04:15.903Z,44.53
2022-11-05T18:06:46.470Z,46.05
2022-11-05T18:09:17.572Z,44.38
2022-11-05T18:11:48.476Z,42.28
2022-11-05T18:14:23.679Z,44.30
2022-11-05T18:16:57.396Z,41.17
2022-11-05T18:19:28.299Z,39.67
2022-11-05T18:21:58.968Z,39.80
2022-11-05T18:24:29.331Z,41.65
2022-11-05T18:26:59.905Z,45.47
2022-11-05T18:29:30.990Z,44.67
2022-11-05T18:32:01.428Z,41.88
2022-11-05T18:37:01.828Z,37.63
2022-11-05T18:39:32.374Z,36.80
2022-11-05T18:44:37.807Z,40.03
2022-11-05T18:47:09.602Z,37.42
2022-11-05T18:52:10.007Z,38.50
2022-11-05T18:57:10.615Z,34.72
2022-11-05T18:59:44.122Z,40.85
2022-11-05T19:02:15.158Z,38.83
2022-11-05T19:05:07.028Z,38.80
2022-11-05T19:07:41.780Z,35.05
2022-11-05T19:10:12.941Z,37.60
2022-11-05T19:12:43.570Z,36.78
2022-11-05T19:15:14.510Z,35.80
2022-11-05T19:17:45.077Z,35.03
2022-11-05T19:20:16.181Z,35.13
2022-11-05T19:22:46.596Z,38.95
2022-11-05T19:25:17.080Z,37.80
2022-11-05T19:30:17.670Z,37.90
2022-11-05T19:32:48.216Z,37.97
2022-11-05T19:37:48.572Z,38.13
2022-11-05T19:40:19.249Z,37.08
2022-11-05T19:42:50.488Z,37.72
2022-11-05T19:45:43.585Z,37.53
2022-11-05T19:48:16.176Z,38.67
2022-11-05T19:50:49.720Z,35.55
2022-11-05T19:53:20.685Z,37.45
2022-11-05T19:55:51.240Z,39.15
2022-11-05T20:00:51.457Z,37.80
2022-11-05T20:05:52.233Z,37.72
2022-11-05T20:08:22.822Z,35.42
2022-11-05T20:13:27.333Z,36.33
2022-11-05T20:15:57.827Z,36.63
2022-11-05T20:21:11.812Z,33.75
2022-11-05T20:23:42.560Z,35.45
2022-11-05T20:26:13.469Z,36.65
2022-11-05T20:28:45.833Z,34.88
2022-11-05T20:31:19.548Z,32.38
2022-11-05T20:33:50.236Z,33.08
2022-11-05T20:36:24.181Z,33.92
2022-11-05T20:39:00.227Z,34.95
2022-11-05T20:41:31.070Z,32.88
2022-11-05T20:44:01.735Z,33.45
2022-11-05T20:46:32.229Z,34.60
2022-11-05T20:51:32.699Z,33.30
2022-11-05T20:56:36.891Z,35.33
2022-11-05T20:59:07.844Z,33.65
2022-11-05T21:01:38.636Z,33.53
2022-11-05T21:04:09.306Z,32.70
2022-11-05T21:09:09.894Z,34.42
2022-11-05T21:11:53.341Z,35.03
2022-11-05T21:14:24.127Z,33.47
2022-11-05T21:16:55.150Z,31.45
2022-11-05T21:19:26.148Z,34.92
2022-11-05T21:21:56.575Z,33.80
2022-11-05T21:24:27.273Z,31.00
2022-11-05T21:26:57.930Z,29.60
2022-11-05T21:29:28.732Z,29.67
2022-11-05T21:31:59.165Z,29.15
2022-11-05T21:34:30.038Z,29.00
2022-11-05T21:37:00.506Z,27.85
2022-11-05T21:39:31.189Z,30.30
2022-11-05T21:42:01.571Z,29.25
2022-11-05T21:44:32.239Z,28.25
2022-11-05T21:47:02.703Z,28.35
2022-11-05T21:49:33.353Z,28.05
2022-11-05T21:52:15.834Z,28.33
2022-11-05T21:54:56.014Z,28.98
2022-11-05T21:57:36.098Z,28.90
2022-11-05T22:00:10.534Z,31.00
2022-11-05T22:02:41.591Z,31.08
2022-11-05T22:05:12.366Z,27.42
2022-11-05T22:07:42.933Z,30.80
2022-11-05T22:12:48.017Z,31.15
2022-11-05T22:15:18.616Z,29.55
2022-11-05T22:20:20.609Z,30.15
2022-11-05T22:22:51.366Z,30.63
2022-11-05T22:25:22.149Z,34.10
2022-11-05T22:27:52.571Z,29.90
2022-11-05T22:30:23.255Z,29.73
2022-11-05T22:32:53.647Z,29.98
2022-11-05T22:35:24.106Z,31.55
2022-11-05T22:37:54.696Z,31.27
2022-11-05T22:40:25.172Z,30.23
2022-11-05T22:42:55.708Z,29.40
2022-11-05T22:47:55.922Z,27.17
2022-11-05T22:50:26.559Z,28.65
2022-11-05T22:52:57.090Z,28.50
2022-11-05T22:57:57.435Z,28.80
2022-11-05T23:03:07.389Z,29.63
2022-11-05T23:05:37.939Z,32.85
2022-11-05T23:08:20.397Z,31.95
2022-11-05T23:11:00.571Z,30.70
2022-11-05T23:13:31.167Z,32.95
2022-11-05T23:18:50.989Z,30.00
2022-11-05T23:21:31.194Z,28.30
2022-11-05T23:24:08.679Z,27.95
2022-11-05T23:26:51.686Z,29.38
2022-11-05T23:29:25.167Z,31.88
2022-11-05T23:32:11.792Z,28.60
2022-11-05T23:34:42.353Z,29.90
2022-11-05T23:39:53.267Z,28.65
2022-11-05T23:42:42.197Z,31.70
2022-11-05T23:45:32.155Z,31.50
2022-11-05T23:48:19.271Z,32.15
2022-11-05T23:50:55.777Z,35.17
2022-11-05T23:53:26.835Z,33.55
2022-11-05T23:56:03.766Z,30.83
2022-11-05T23:58:34.386Z,29.58
